createdAt,value
2023-03-06T06:19:40.788Z,-0.50
2023-03-06T06:29:40.699Z,-0.58
2023-03-06T06:39:40.795Z,-0.58
2023-03-06T06:49:40.869Z,-0.60
2023-03-06T06:59:40.880Z,-0.59
2023-03-06T07:09:40.761Z,-0.66
2023-03-06T07:19:40.813Z,-0.62
2023-03-06T07:29:40.655Z,-0.61
2023-03-06T07:39:40.744Z,-0.65
2023-03-06T07:49:40.921Z,-0.67
2023-03-06T07:59:40.745Z,-0.64
2023-03-06T08:09:41.047Z,-0.58
2023-03-06T08:19:40.920Z,-0.51
2023-03-06T08:29:40.982Z,-0.42
2023-03-06T08:39:40.943Z,-0.40
2023-03-06T08:49:41.029Z,-0.38
2023-03-06T08:59:40.925Z,-0.37
2023-03-06T09:09:41.117Z,-0.51
2023-03-06T09:19:40.974Z,-0.43
2023-03-06T09:29:41.170Z,-0.58
2023-03-06T09:39:41.122Z,-0.61
2023-03-06T09:49:41.199Z,-0.56
2023-03-06T09:59:46.420Z,-0.49
2023-03-06T10:09:41.010Z,-0.26
2023-03-06T10:19:41.085Z,-0.02
2023-03-06T10:29:42.192Z,0.34
2023-03-06T10:39:41.212Z,0.57
2023-03-06T10:49:41.068Z,0.53
2023-03-06T10:59:41.085Z,0.94
2023-03-06T11:09:41.066Z,1.59
2023-03-06T11:19:40.990Z,1.60
2023-03-06T11:29:41.267Z,1.57
2023-03-06T11:39:41.084Z,1.53
2023-03-06T11:49:41.166Z,1.68
2023-03-06T11:59:41.222Z,2.20
2023-03-06T12:09:41.291Z,2.09
2023-03-06T12:19:41.245Z,2.49
2023-03-06T12:29:40.992Z,2.07
2023-03-06T12:39:41.055Z,2.45
2023-03-06T12:49:41.226Z,2.60
2023-03-06T12:59:41.211Z,2.91
2023-03-06T13:09:41.147Z,2.74
2023-03-06T13:19:41.335Z,3.65
2023-03-06T13:29:41.192Z,3.33
2023-03-06T13:39:41.212Z,3.24
2023-03-06T13:49:41.212Z,3.29
2023-03-06T13:59:41.294Z,3.63
2023-03-06T14:09:41.085Z,3.89
2023-03-06T14:19:41.314Z,3.60
2023-03-06T14:29:41.187Z,4.49
2023-03-06T14:39:41.329Z,4.84
2023-03-06T14:49:41.153Z,4.29
2023-03-06T14:59:41.269Z,5.05
2023-03-06T15:09:41.284Z,3.96
2023-03-06T15:19:41.293Z,4.48
2023-03-06T15:29:41.367Z,4.35
2023-03-06T15:39:41.329Z,3.81
2023-03-06T15:49:41.587Z,3.46
2023-03-06T15:59:41.233Z,3.39
2023-03-06T16:09:41.451Z,2.88
2023-03-06T16:19:41.258Z,2.52
2023-03-06T16:29:41.305Z,2.19
2023-03-06T16:39:41.407Z,1.90
2023-03-06T16:49:41.430Z,1.30
2023-03-06T16:59:41.332Z,0.79
2023-03-06T17:09:41.600Z,0.60
2023-03-06T17:19:41.559Z,0.38
2023-03-06T17:29:41.358Z,-0.09
2023-03-06T17:39:41.286Z,0.46
2023-03-06T17:49:41.419Z,0.93
2023-03-06T17:59:41.421Z,0.97
2023-03-06T18:09:41.220Z,0.65
2023-03-06T18:19:41.329Z,0.68
2023-03-06T18:29:41.599Z,0.61
2023-03-06T18:39:41.669Z,0.56
2023-03-06T18:49:44.122Z,0.49
2023-03-06T18:59:41.660Z,-0.01
2023-03-06T19:09:41.969Z,-0.33
2023-03-06T19:19:41.828Z,-0.47
